Terminal Aerodrome Forecast
Issued by NWS Shreveport, LA

Home | Current Version | Previous Version | Text Only | Print | Product List | Glossary On
Versions: 1 2 3 4 5 6 7 8 9 10 11 12 13
000
FTUS44 KSHV 051300 AAA
TAFTYR
TAF AMD
KTYR 051300Z 0513/0612 22011KT P6SM SCT015 SCT130
      TEMPO 0513/0514 BKN015
     FM051500 21011KT P6SM SCT022 SCT130
     FM051700 21010KT P6SM SCT050
     FM060200 19006KT P6SM SKC
     FM060600 19011KT P6SM SKC=

USA.gov is the U.S. government's official web portal to all federal, state and local government web resources and services.